Details From LLBG - Tel Aviv Ben Gurion
To UBBG - Ganja
Flight Number -
Tags Generated
Created
Modified
Stats Distance 761 nm / 1,409 km
Max Altitude 0 ft / 0 m
Waypoints 4
Social Downloads 1
Likes 0
Share VATSIM

Download

Looking for another format? Having issues loading an existing format? Contact us
Advertisement - Login to hide

Notes

Generated

Route

LLBG SRT KEDAB UBBG

ID Type Via Altitude Latitude Longitude Leg Dist Tot Dist Heading (true) Name
O LLBG APT - 0 ft / 0 m 32.00417˚ 34.89117˚ - 0 nm - -
SRT VOR - 0 ft / 0 m 37.90944˚ 41.88222˚ 493 nm 493 nm 42° / 46° SIIRT VOR-DME
KEDAB FIX - 0 ft / 0 m 40.60000˚ 46.03167˚ 251 nm 745 nm 49° / 51° -
O UBBG APT - 0 ft / 0 m 40.74464˚ 46.30592˚ 15 nm 760 nm 55° / 55° -

Altitude Profile

Advertisement - Login to hide

Weather


0- 5 10 15 20 25 30 35+ Temperature / ° C

Clouds and Precipitation
Forecast for 2018-05-26 18:00 UTC. Updated 5 hours ago

Ground ~20,000 ft ~40,000 ft Winds

LLBG

Details ICAO LLBG (TLV)
Name Tel Aviv Ben Gurion
Region Israel
Timezone Asia/Jerusalem (UTC+3.0)
Stats Elevation 135 ft / 41 m (AMSL)
Location 32.011468° 34.885059°
Runways 3
Magnetic Variation 4.723° E

METAR

LLBG 262120Z VRB02KT 9999 SCT016 23/19 Q1010 TEMPO SCT015

Decode

TAF

TAF TAF LLBG 261707Z 2618/2718 35006KT 9999 FEW017 BECMG 2620/2622 VRB04KT SCT015 PROB40 2700/2705 7000 BKN012 BECMG 2706/2709 32012KT CAVOK TX29/2712Z TN20/2703Z

Decode

Departure Runways

ID Width Length Bearing (true) Bearing (mag) Surface Threshold Offset Overrun Length
03 148 ft / 45 m 5,792 ft / 1,765 m 28.88° 24.16° Asphalt 0 ft / 0 m 216 ft / 66 m
08 148 ft / 45 m 12,017 ft / 3,663 m 79.72° 75.00° Asphalt 0 ft / 0 m 295 ft / 90 m
12 148 ft / 45 m 10,279 ft / 3,133 m 121.54° 116.82° Asphalt 0 ft / 0 m 328 ft / 100 m
21 148 ft / 45 m 5,792 ft / 1,765 m 208.88° 204.16° Asphalt 0 ft / 0 m 216 ft / 66 m
26 148 ft / 45 m 12,017 ft / 3,663 m 259.74° 255.02° Asphalt 1,969 ft / 600 m 205 ft / 62 m
30 148 ft / 45 m 10,279 ft / 3,133 m 301.56° 296.84° Asphalt 246 ft / 75 m 347 ft / 106 m

UBBG

Details ICAO UBBG (KVD)
Name GANJA
Region Azerbiajan
Timezone Asia/Baku (UTC+4.0)
Stats Elevation 1,083 ft / 330 m (AMSL)
Location 40.737676° 46.317582°
Runways 1
Magnetic Variation 6.405° E

METAR

UBBG 262130Z 19008KT 9999 BKN083 20/15 Q1016 R30/CLRD// NOSIG

Decode

TAF

TAF AMD TAF AMD UBBG 261530Z 2616/2712 VRB20KT 6000 -TSRA SCT040CB BKN100 TX33/2712Z TN18/2702Z BECMG 2619/2620 VRB02KT 9999 NSW BKN080 BECMG 2706/2708 11016KT

Decode

Destination Runways

ID Width Length Bearing (true) Bearing (mag) Surface Threshold Offset Overrun Length
12 144 ft / 44 m 8,211 ft / 2,503 m 128.25° 121.84° Concrete 0 ft / 0 m 0 ft / 0 m
30 144 ft / 44 m 8,211 ft / 2,503 m 308.26° 301.85° Concrete 0 ft / 0 m 1,630 ft / 497 m